Hauptseite
METAR-TAF:

METAR-TAF

Flughäfen :

Flughafen Bastia

Bastia, Frankreich

Breite: 42-33N, Länge: 009-29E, Höhe: 8 m

Beobachtung

Neuester Wetterbericht von vor 40 Minuten, um 12:00 UTC
Wind 8 kt aus Ost/Südost
Temperatur 19°C
Luftfeuchtigkeit 78%
Luftdruck 1017 hPa
Sichtweite: 9000 m
Durchbrochene Bewölkung in der Höhe von 2300 ft

METAR: LFKB 251200Z AUTO 11008KT 9000 BKN023 19/15 Q1017 NOSIG

Zeit: 14:40 (12:40 UTC)

Prognose

Neuester Wetterbericht von vor 4 Stunden und 40 Minuten, um 08:00 UTC
Gültige Prognose vom 25 um 09 UTC bis 26 um 09 UTC
Wind 6 kt aus Südost
Sichtweite 10 km oder mehr
Aufgelockert bewölkt in der Höhe von 2000 ft
Wahrscheinlichkeit 40% :
Zeitweise
vom 25 um 21 UTC bis 26 um 06 UTC
Durchbrochene Bewölkung in der Höhe von 1400 ft
Flacher Nebel

TAF: LFKB 250800Z 2509/2609 14006KT 9999 SCT020 TX19/2512Z TN11/2603Z PROB40 TEMPO 2521/2606 MIFG BKN014

Wetterbeobachtungen und Prognosen von mehr als 4000 Flughäfen (METAR und TAF Bericht).

Die verfügbaren Stationen werden durch gelbe und rote Markierungen auf der Karte dargestellt.

Führen Sie die Maus auf sie, um den Namen der Station zu sehen.

Darauf klicken, um die Beobachtung von Wetterbeobachtungen und Prognosen zu sehen.

Um die Karte zu ändern : klicken Sie auf den grünen Tasten mit einem schwarzen Kreuz Zum Vergrößern, auf den grünen Button mit einem Gedankenstrich zu verkleinern, oder auf die grünen Pfeile für benachbarte Karten.


METAR-TAF: